createdAt,value
2019-05-13T00:01:07.172Z,103612.13
2019-05-13T00:03:36.211Z,103607.26
2019-05-13T00:06:05.660Z,103605.03
2019-05-13T00:08:35.064Z,103602.41
2019-05-13T00:11:06.006Z,103604.60
2019-05-13T00:13:35.506Z,103600.61
2019-05-13T00:16:06.767Z,103600.66
2019-05-13T00:18:36.498Z,103607.71
2019-05-13T00:21:06.960Z,103605.08
2019-05-13T00:23:39.390Z,103607.34
2019-05-13T00:26:10.538Z,103616.66
2019-05-13T00:28:41.046Z,103611.40
2019-05-13T00:31:10.450Z,103615.35
2019-05-13T00:33:39.905Z,103618.50
2019-05-13T00:36:09.357Z,103617.59
2019-05-13T00:38:39.937Z,103614.48
2019-05-13T00:41:10.493Z,103617.66
2019-05-13T00:43:41.357Z,103618.59
2019-05-13T00:46:10.835Z,103621.66
2019-05-13T00:48:43.968Z,103626.48
2019-05-13T00:51:14.219Z,103627.39
2019-05-13T00:53:44.319Z,103629.20
2019-05-13T00:56:13.954Z,103623.89
2019-05-13T00:58:46.973Z,103620.33
2019-05-13T01:01:17.883Z,103616.39
2019-05-13T01:03:49.641Z,103616.39
2019-05-13T01:06:20.167Z,103618.14
2019-05-13T01:08:53.578Z,103624.34
2019-05-13T01:11:23.638Z,103623.89
2019-05-13T01:13:54.956Z,103616.80
2019-05-13T01:16:25.689Z,103623.45
2019-05-13T01:18:56.437Z,103628.77
2019-05-13T01:21:25.887Z,103626.56
2019-05-13T01:23:55.292Z,103622.16
2019-05-13T01:26:25.045Z,103624.34
2019-05-13T01:28:55.745Z,103622.14
2019-05-13T01:31:28.057Z,103619.92
2019-05-13T01:33:58.990Z,103623.03
2019-05-13T01:36:29.868Z,103620.38
2019-05-13T01:38:59.284Z,103624.37
2019-05-13T01:41:29.815Z,103615.56
2019-05-13T01:44:00.651Z,103612.89
2019-05-13T01:46:31.666Z,103612.02
2019-05-13T01:49:04.963Z,103617.31
2019-05-13T01:51:34.437Z,103614.23
2019-05-13T01:54:04.245Z,103616.05
2019-05-13T01:56:34.133Z,103617.36
2019-05-13T01:59:03.816Z,103625.31
2019-05-13T02:01:33.919Z,103623.13
2019-05-13T02:04:04.981Z,103624.45
2019-05-13T02:06:36.326Z,103626.66
2019-05-13T02:09:07.394Z,103629.28
2019-05-13T02:11:37.366Z,103627.97
2019-05-13T02:14:07.871Z,103628.86
2019-05-13T02:16:37.362Z,103639.04
2019-05-13T02:19:08.066Z,103632.41
2019-05-13T02:21:38.936Z,103638.15
2019-05-13T02:24:08.425Z,103634.62
2019-05-13T02:26:39.886Z,103641.70
2019-05-13T02:29:10.446Z,103641.28
2019-05-13T02:31:47.653Z,103637.30
2019-05-13T02:34:13.739Z,103643.08
2019-05-13T02:36:43.966Z,103643.08
2019-05-13T02:39:15.080Z,103642.17
2019-05-13T02:41:46.536Z,103639.97
2019-05-13T02:44:15.957Z,103643.08
2019-05-13T02:46:45.553Z,103642.20
2019-05-13T02:49:16.678Z,103645.75
2019-05-13T02:51:46.460Z,103642.63
2019-05-13T02:54:18.652Z,103643.98
2019-05-13T02:56:48.199Z,103651.94
2019-05-13T02:59:18.835Z,103654.16
2019-05-13T03:01:53.021Z,103663.44
2019-05-13T03:04:23.482Z,103664.35
2019-05-13T03:06:56.565Z,103662.55
2019-05-13T03:09:26.173Z,103664.80
2019-05-13T03:11:56.701Z,103665.66
2019-05-13T03:14:27.889Z,103663.44
2019-05-13T03:17:08.371Z,103675.84
2019-05-13T03:19:38.948Z,103668.34
2019-05-13T03:22:09.379Z,103680.27
2019-05-13T03:24:42.956Z,103669.64
2019-05-13T03:27:13.138Z,103670.09
2019-05-13T03:29:43.492Z,103679.39
2019-05-13T03:32:16.010Z,103674.08
2019-05-13T03:34:45.767Z,103672.74
2019-05-13T03:37:17.062Z,103676.27
2019-05-13T03:39:52.160Z,103677.59
2019-05-13T03:42:23.137Z,103675.38
2019-05-13T03:44:55.622Z,103679.37
2019-05-13T03:47:26.228Z,103679.84
2019-05-13T03:50:03.480Z,103684.68
2019-05-13T03:52:33.721Z,103688.67
2019-05-13T03:55:05.120Z,103677.16
2019-05-13T03:57:36.073Z,103689.55
2019-05-13T04:00:08.138Z,103687.33
2019-05-13T04:02:42.704Z,103690.42
2019-05-13T04:05:13.430Z,103686.91
2019-05-13T04:07:43.568Z,103693.10
2019-05-13T04:10:13.638Z,103693.12
2019-05-13T04:12:43.144Z,103698.86
2019-05-13T04:15:13.019Z,103693.53
2019-05-13T04:17:43.038Z,103689.55
2019-05-13T04:20:14.304Z,103697.05
2019-05-13T04:22:44.154Z,103694.41
2019-05-13T04:25:15.572Z,103687.74
2019-05-13T04:27:45.069Z,103697.05
2019-05-13T04:30:16.478Z,103696.61
2019-05-13T04:32:45.966Z,103692.16
2019-05-13T04:35:15.375Z,103695.27
2019-05-13T04:37:44.898Z,103701.88
2019-05-13T04:40:16.137Z,103697.00
2019-05-13T04:42:49.203Z,103705.82
2019-05-13T04:45:19.570Z,103696.98
2019-05-13T04:47:52.880Z,103700.52
2019-05-13T04:50:22.623Z,103702.70
2019-05-13T04:52:55.000Z,103707.56
2019-05-13T04:55:24.643Z,103707.17
2019-05-13T04:57:55.892Z,103708.48
2019-05-13T05:01:07.577Z,103707.56
2019-05-13T05:03:45.763Z,103710.19
2019-05-13T05:06:44.778Z,103708.44
2019-05-13T05:10:16.875Z,103711.42
2019-05-13T05:13:02.787Z,103710.55
2019-05-13T05:16:05.293Z,103712.78
2019-05-13T05:19:03.877Z,103718.55
2019-05-13T05:21:44.065Z,103719.05
2019-05-13T05:24:53.720Z,103717.71
2019-05-13T05:28:03.878Z,103718.14
2019-05-13T05:31:02.739Z,103717.64
2019-05-13T05:33:51.670Z,103720.73
2019-05-13T05:36:41.456Z,103721.57
2019-05-13T05:39:22.730Z,103719.27
2019-05-13T05:41:56.254Z,103715.73
2019-05-13T05:44:28.584Z,103709.95
2019-05-13T05:47:02.617Z,103713.96
2019-05-13T05:49:32.806Z,103710.38
2019-05-13T05:52:06.451Z,103720.59
2019-05-13T05:54:38.231Z,103724.02
2019-05-13T05:57:12.157Z,103726.67
2019-05-13T05:59:42.551Z,103727.48
2019-05-13T06:02:12.709Z,103727.45
2019-05-13T06:04:43.187Z,103730.52
2019-05-13T06:07:15.735Z,103725.57
2019-05-13T06:09:46.281Z,103723.73
2019-05-13T06:12:16.351Z,103726.39
2019-05-13T06:14:46.401Z,103729.86
2019-05-13T06:17:16.067Z,103726.24
2019-05-13T06:19:45.976Z,103719.48
2019-05-13T06:22:15.559Z,103725.13
2019-05-13T06:24:46.791Z,103721.11
2019-05-13T06:27:21.304Z,103724.11
2019-05-13T06:29:53.020Z,103723.23
2019-05-13T06:32:26.277Z,103728.88
2019-05-13T06:34:55.134Z,103730.97
2019-05-13T06:37:24.560Z,103735.28
2019-05-13T06:39:53.996Z,103719.32
2019-05-13T06:42:23.502Z,103729.55
2019-05-13T06:44:52.982Z,103716.58
2019-05-13T06:47:22.400Z,103715.08
2019-05-13T06:49:53.875Z,103719.39
2019-05-13T06:52:25.116Z,103715.94
2019-05-13T06:54:56.976Z,103711.92
2019-05-13T06:57:27.925Z,103715.50
2019-05-13T06:59:57.359Z,103716.86
2019-05-13T07:02:26.775Z,103717.37
2019-05-13T07:04:57.442Z,103713.78
2019-05-13T07:07:26.851Z,103717.02
2019-05-13T07:09:56.252Z,103724.32
2019-05-13T07:12:25.716Z,103728.09
2019-05-13T07:14:55.207Z,103726.53
2019-05-13T07:17:24.613Z,103726.03
2019-05-13T07:19:54.237Z,103721.33
2019-05-13T07:22:26.589Z,103721.53
2019-05-13T07:24:56.327Z,103722.84
2019-05-13T07:27:25.939Z,103720.86
2019-05-13T07:29:55.819Z,103720.00
2019-05-13T07:32:25.503Z,103719.48
2019-05-13T07:34:56.418Z,103718.89
2019-05-13T07:37:27.633Z,103727.38
2019-05-13T07:39:57.050Z,103719.18
2019-05-13T07:42:26.623Z,103732.75
2019-05-13T07:44:56.059Z,103718.05
2019-05-13T07:47:25.478Z,103711.37
2019-05-13T07:49:55.035Z,103718.56
2019-05-13T07:52:25.703Z,103724.00
2019-05-13T07:54:56.222Z,103726.81
2019-05-13T07:57:25.960Z,103731.23
2019-05-13T07:59:55.416Z,103730.57
2019-05-13T08:02:24.953Z,103732.66
2019-05-13T08:04:54.417Z,103732.06
2019-05-13T08:07:23.835Z,103732.39
2019-05-13T08:09:56.802Z,103736.01
2019-05-13T08:12:25.033Z,103727.17
2019-05-13T08:14:54.471Z,103728.68
2019-05-13T08:17:23.879Z,103726.91
2019-05-13T08:19:53.578Z,103726.69
2019-05-13T08:22:22.992Z,103720.58
2019-05-13T08:24:54.386Z,103731.02
2019-05-13T08:27:30.346Z,103725.67
2019-05-13T08:29:56.612Z,103725.09
2019-05-13T08:32:27.137Z,103729.88
2019-05-13T08:35:01.264Z,103721.54
2019-05-13T08:37:28.016Z,103716.12
2019-05-13T08:39:57.432Z,103717.34
2019-05-13T08:42:26.965Z,103713.88
2019-05-13T08:44:56.414Z,103706.61
2019-05-13T08:47:27.347Z,103705.30
2019-05-13T08:49:56.839Z,103709.41
2019-05-13T08:52:26.254Z,103716.12
2019-05-13T08:54:56.704Z,103717.28
2019-05-13T08:57:26.206Z,103710.63
2019-05-13T08:59:55.665Z,103714.95
2019-05-13T09:02:25.095Z,103718.55
2019-05-13T09:04:55.496Z,103719.27
2019-05-13T09:07:24.930Z,103712.55
2019-05-13T09:09:54.493Z,103717.55
2019-05-13T09:14:55.855Z,103712.62
2019-05-13T09:17:25.584Z,103716.77
2019-05-13T09:19:55.346Z,103708.98
2019-05-13T09:22:24.794Z,103715.89
2019-05-13T09:24:54.240Z,103703.48
2019-05-13T09:27:23.733Z,103715.66
2019-05-13T09:29:53.239Z,103714.82
2019-05-13T09:32:22.986Z,103715.66
2019-05-13T09:34:52.761Z,103703.50
2019-05-13T09:37:22.610Z,103714.36
2019-05-13T09:39:52.181Z,103718.55
2019-05-13T09:42:21.867Z,103717.52
2019-05-13T09:44:52.492Z,103712.08
2019-05-13T09:47:22.333Z,103724.27
2019-05-13T09:49:54.363Z,103717.48
2019-05-13T09:52:23.016Z,103720.21
2019-05-13T09:54:52.582Z,103718.73
2019-05-13T09:57:22.242Z,103715.23
2019-05-13T09:59:52.431Z,103715.30
2019-05-13T10:02:22.056Z,103715.30
2019-05-13T10:04:51.752Z,103712.68
2019-05-13T10:07:22.867Z,103700.63
2019-05-13T10:09:52.539Z,103711.17
2019-05-13T10:12:24.327Z,103710.98
2019-05-13T10:14:53.202Z,103713.45
2019-05-13T10:17:22.721Z,103706.84
2019-05-13T10:19:52.640Z,103701.20
2019-05-13T10:22:22.211Z,103694.25
2019-05-13T10:24:51.727Z,103698.47
2019-05-13T10:27:22.521Z,103692.55
2019-05-13T10:29:52.436Z,103694.52
2019-05-13T10:32:22.156Z,103690.72
2019-05-13T10:34:55.127Z,103696.55
2019-05-13T10:37:24.665Z,103698.22
2019-05-13T10:39:57.280Z,103699.44
2019-05-13T10:42:27.177Z,103691.78
2019-05-13T10:44:56.790Z,103694.15
2019-05-13T10:47:26.186Z,103699.23
2019-05-13T10:49:55.732Z,103685.05
2019-05-13T10:52:25.130Z,103690.00
2019-05-13T10:54:54.581Z,103690.48
2019-05-13T10:57:24.243Z,103686.73
2019-05-13T10:59:53.822Z,103682.91
2019-05-13T11:02:23.220Z,103689.63
2019-05-13T11:04:52.858Z,103683.63
2019-05-13T11:07:22.675Z,103679.59
2019-05-13T11:09:52.918Z,103680.09
2019-05-13T11:12:27.993Z,103682.78
2019-05-13T11:14:55.452Z,103694.27
2019-05-13T11:17:43.603Z,103689.88
2019-05-13T11:19:56.493Z,103687.92
2019-05-13T11:22:26.220Z,103683.67
2019-05-13T11:24:55.928Z,103694.26
2019-05-13T11:27:25.396Z,103675.98
2019-05-13T11:29:54.896Z,103674.27
2019-05-13T11:32:24.292Z,103669.14
2019-05-13T11:34:53.767Z,103669.14
2019-05-13T11:37:23.483Z,103679.47
2019-05-13T11:39:52.981Z,103687.49
2019-05-13T11:42:22.940Z,103685.84
2019-05-13T11:44:53.008Z,103687.77
2019-05-13T11:47:22.576Z,103677.94
2019-05-13T11:49:52.509Z,103686.11
2019-05-13T11:52:23.377Z,103672.31
2019-05-13T11:57:27.080Z,103664.47
2019-05-13T11:59:56.506Z,103673.89
2019-05-13T12:02:26.057Z,103656.11
2019-05-13T12:04:55.562Z,103675.02
2019-05-13T12:07:25.044Z,103667.25
2019-05-13T12:09:54.612Z,103660.78
2019-05-13T12:12:30.508Z,103659.75
2019-05-13T12:15:22.187Z,103657.92
2019-05-13T12:17:29.188Z,103655.86
2019-05-13T12:20:02.999Z,103663.14
2019-05-13T12:22:33.821Z,103654.97
2019-05-13T12:25:03.943Z,103646.20
2019-05-13T12:27:36.049Z,103654.31
2019-05-13T12:30:06.143Z,103644.10
2019-05-13T12:32:37.401Z,103637.18
2019-05-13T12:35:08.150Z,103634.08
2019-05-13T12:37:38.578Z,103637.66
2019-05-13T12:40:10.907Z,103630.55
2019-05-13T12:42:46.785Z,103643.59
2019-05-13T12:45:14.241Z,103637.25
2019-05-13T12:47:43.499Z,103629.63
2019-05-13T12:50:14.128Z,103621.94
2019-05-13T12:52:43.979Z,103627.15
2019-05-13T12:55:15.176Z,103617.63
2019-05-13T12:57:46.321Z,103615.38
2019-05-13T13:00:16.841Z,103617.91
2019-05-13T13:02:51.608Z,103611.95
2019-05-13T13:05:21.350Z,103611.89
2019-05-13T13:08:15.892Z,103612.48
2019-05-13T13:10:23.644Z,103609.16
2019-05-13T13:12:54.944Z,103607.48
2019-05-13T13:15:41.226Z,103600.98
2019-05-13T13:17:57.464Z,103596.19
2019-05-13T13:20:32.668Z,103597.06
2019-05-13T13:23:04.470Z,103592.95
2019-05-13T13:25:33.817Z,103583.20
2019-05-13T13:30:35.748Z,103575.76
2019-05-13T13:33:05.240Z,103601.77
2019-05-13T13:35:34.947Z,103579.69
2019-05-13T13:38:04.732Z,103577.41
2019-05-13T13:40:35.729Z,103570.73
2019-05-13T13:43:05.636Z,103588.67
2019-05-13T13:46:05.970Z,103576.20
2019-05-13T13:48:13.383Z,103566.27
2019-05-13T13:50:44.331Z,103571.11
2019-05-13T13:53:14.538Z,103567.89
2019-05-13T13:55:45.575Z,103563.86
2019-05-13T13:58:15.062Z,103557.67
2019-05-13T14:00:56.456Z,103557.76
2019-05-13T14:03:17.058Z,103551.06
2019-05-13T14:05:47.896Z,103557.06
2019-05-13T14:06:25.038Z,103717.91
2019-05-13T14:06:30.769Z,103676.37
2019-05-13T14:07:09.043Z,103581.52
2019-05-13T14:08:17.379Z,103555.63
2019-05-13T14:10:51.211Z,103553.23
2019-05-13T14:13:21.758Z,103561.16
2019-05-13T14:15:52.687Z,103557.83
2019-05-13T14:18:26.590Z,103560.70
2019-05-13T14:20:55.167Z,103562.55
2019-05-13T14:23:24.701Z,103560.28
2019-05-13T14:25:54.125Z,103541.50
2019-05-13T14:28:23.838Z,103533.58
2019-05-13T14:30:53.426Z,103533.58
2019-05-13T14:33:23.255Z,103538.16
2019-05-13T14:35:53.186Z,103540.77
2019-05-13T14:38:22.786Z,103538.96
2019-05-13T14:40:52.834Z,103529.94
2019-05-13T14:43:23.091Z,103527.38
2019-05-13T14:45:52.646Z,103524.19
2019-05-13T14:48:22.611Z,103513.01
2019-05-13T14:50:53.981Z,103521.77
2019-05-13T14:53:23.489Z,103524.69
2019-05-13T14:55:54.391Z,103526.44
2019-05-13T14:58:24.974Z,103531.98
2019-05-13T15:01:11.507Z,103532.13
2019-05-13T15:03:25.536Z,103510.90
2019-05-13T15:05:55.449Z,103521.42
2019-05-13T15:08:26.029Z,103521.97
2019-05-13T15:10:55.678Z,103533.22
2019-05-13T15:13:27.472Z,103515.88
2019-05-13T15:15:56.950Z,103518.97
2019-05-13T15:18:26.458Z,103513.45
2019-05-13T15:20:56.239Z,103519.92
2019-05-13T15:23:26.894Z,103516.42
2019-05-13T15:25:56.295Z,103515.15
2019-05-13T15:28:25.746Z,103523.27
2019-05-13T15:30:55.203Z,103512.02
2019-05-13T15:33:24.913Z,103517.78
2019-05-13T15:35:55.056Z,103518.44
2019-05-13T15:38:25.606Z,103503.12
2019-05-13T15:40:56.605Z,103522.50
2019-05-13T15:43:27.178Z,103518.48
2019-05-13T15:45:56.580Z,103521.58
2019-05-13T15:48:26.034Z,103534.63
2019-05-13T15:50:55.694Z,103529.34
2019-05-13T15:53:26.564Z,103517.97
2019-05-13T15:55:56.036Z,103522.89
2019-05-13T15:58:38.443Z,103520.83
2019-05-13T16:00:56.939Z,103527.39
2019-05-13T16:03:27.548Z,103513.03
2019-05-13T16:05:57.069Z,103516.54
2019-05-13T16:08:26.510Z,103519.62
2019-05-13T16:10:56.152Z,103508.77
2019-05-13T16:13:27.585Z,103506.09
2019-05-13T16:15:57.202Z,103516.09
2019-05-13T16:18:26.741Z,103511.23
2019-05-13T16:21:01.514Z,103516.40
2019-05-13T16:23:32.599Z,103510.04
2019-05-13T16:26:02.342Z,103510.04
2019-05-13T16:28:33.134Z,103519.44
2019-05-13T16:31:02.776Z,103517.05
2019-05-13T16:33:32.198Z,103503.62
2019-05-13T16:36:37.191Z,103517.64
2019-05-13T16:38:33.560Z,103514.14
2019-05-13T16:41:03.011Z,103513.55
2019-05-13T16:43:33.053Z,103517.42
2019-05-13T16:46:02.489Z,103515.78
2019-05-13T16:48:32.492Z,103521.59
2019-05-13T16:51:02.157Z,103521.39
2019-05-13T16:53:32.082Z,103529.30
2019-05-13T16:56:02.104Z,103519.52
2019-05-13T16:58:32.641Z,103524.83
2019-05-13T17:01:02.753Z,103521.13
2019-05-13T17:03:32.243Z,103520.92
2019-05-13T17:06:02.440Z,103514.89
2019-05-13T17:08:32.250Z,103515.30
2019-05-13T17:11:02.452Z,103512.59
2019-05-13T17:13:32.097Z,103524.34
2019-05-13T17:16:02.042Z,103519.79
2019-05-13T17:18:32.561Z,103530.20
2019-05-13T17:21:02.693Z,103515.14
2019-05-13T17:23:32.139Z,103529.48
2019-05-13T17:26:02.771Z,103528.70
2019-05-13T17:28:34.206Z,103526.80
2019-05-13T17:31:03.994Z,103534.36
2019-05-13T17:33:33.444Z,103534.84
2019-05-13T17:36:02.882Z,103526.98
2019-05-13T17:38:32.631Z,103535.56
2019-05-13T17:41:03.347Z,103530.97
2019-05-13T17:43:33.207Z,103525.59
2019-05-13T17:46:04.511Z,103533.96
2019-05-13T17:48:34.924Z,103534.73
2019-05-13T17:51:04.531Z,103529.48
2019-05-13T17:53:33.923Z,103532.09
2019-05-13T17:56:03.306Z,103528.51
2019-05-13T17:58:32.746Z,103528.81
2019-05-13T18:01:02.179Z,103526.19
2019-05-13T18:03:32.563Z,103526.80
2019-05-13T18:06:02.726Z,103529.94
2019-05-13T18:08:32.381Z,103522.98
2019-05-13T18:11:02.637Z,103530.53
2019-05-13T18:13:34.476Z,103530.91
2019-05-13T18:16:05.676Z,103524.55
2019-05-13T18:18:43.047Z,103526.20
2019-05-13T18:21:06.535Z,103525.23
2019-05-13T18:23:35.976Z,103528.25
2019-05-13T18:26:05.541Z,103539.12
2019-05-13T18:28:36.862Z,103541.23
2019-05-13T18:31:06.268Z,103537.38
2019-05-13T18:33:36.887Z,103546.31
2019-05-13T18:36:06.326Z,103539.10
2019-05-13T18:38:35.732Z,103541.78
2019-05-13T18:41:05.131Z,103545.08
2019-05-13T18:43:34.929Z,103543.98
2019-05-13T18:46:04.704Z,103547.77
2019-05-13T18:48:34.088Z,103547.48
2019-05-13T18:51:05.450Z,103548.64
2019-05-13T18:53:34.838Z,103555.59
2019-05-13T18:56:05.566Z,103556.41
2019-05-13T18:58:35.014Z,103555.47
2019-05-13T19:01:04.451Z,103552.30
2019-05-13T19:03:35.623Z,103553.70
2019-05-13T19:06:08.463Z,103556.08
2019-05-13T19:08:41.214Z,103555.29
2019-05-13T19:11:12.015Z,103561.48
2019-05-13T19:13:42.997Z,103567.49
2019-05-13T19:16:15.305Z,103572.03
2019-05-13T19:18:46.850Z,103568.78
2019-05-13T19:21:16.683Z,103566.64
2019-05-13T19:23:46.154Z,103576.95
2019-05-13T19:26:17.339Z,103582.52
2019-05-13T19:28:46.781Z,103586.02
2019-05-13T19:31:17.776Z,103582.84
2019-05-13T19:33:47.375Z,103584.19
2019-05-13T19:36:16.870Z,103592.75
2019-05-13T19:38:46.257Z,103593.20
2019-05-13T19:41:15.634Z,103591.19
2019-05-13T19:43:46.211Z,103591.45
2019-05-13T19:46:17.452Z,103587.66
2019-05-13T19:48:47.168Z,103587.34
2019-05-13T19:51:17.984Z,103593.55
2019-05-13T19:53:51.547Z,103599.87
2019-05-13T19:56:21.383Z,103591.73
2019-05-13T19:58:51.140Z,103599.44
2019-05-13T20:01:21.678Z,103600.13
2019-05-13T20:03:54.313Z,103603.69
2019-05-13T20:06:26.937Z,103598.83
2019-05-13T20:08:56.765Z,103599.69
2019-05-13T20:11:27.103Z,103600.61
2019-05-13T20:13:57.940Z,103599.69
2019-05-13T20:16:27.549Z,103601.59
2019-05-13T20:18:57.649Z,103588.83
2019-05-13T20:21:27.708Z,103595.13
2019-05-13T20:24:00.329Z,103588.94
2019-05-13T20:26:41.437Z,103597.11
2019-05-13T20:29:12.563Z,103593.11
2019-05-13T20:31:45.456Z,103594.62
2019-05-13T20:34:17.724Z,103593.18
2019-05-13T20:36:51.603Z,103590.95
2019-05-13T20:39:23.781Z,103590.29
2019-05-13T20:41:55.933Z,103596.59
2019-05-13T20:44:25.554Z,103591.25
2019-05-13T20:46:57.634Z,103597.52
2019-05-13T20:49:28.513Z,103596.81
2019-05-13T20:51:58.345Z,103604.90
2019-05-13T20:54:27.747Z,103607.95
2019-05-13T20:56:57.285Z,103607.30
2019-05-13T20:59:26.977Z,103601.59
2019-05-13T21:01:56.572Z,103600.73
2019-05-13T21:04:26.063Z,103606.41
2019-05-13T21:06:55.593Z,103601.86
2019-05-13T21:09:25.125Z,103604.70
2019-05-13T21:11:54.580Z,103606.65
2019-05-13T21:14:24.606Z,103599.79
2019-05-13T21:16:54.043Z,103598.52
2019-05-13T21:19:25.165Z,103591.31
2019-05-13T21:21:55.789Z,103590.04
2019-05-13T21:24:26.502Z,103587.02
2019-05-13T21:26:56.921Z,103587.81
2019-05-13T21:29:28.627Z,103586.92
2019-05-13T21:31:58.490Z,103593.85
2019-05-13T21:34:31.449Z,103594.61
2019-05-13T21:37:02.464Z,103597.31
2019-05-13T21:39:32.611Z,103599.63
2019-05-13T21:42:02.652Z,103599.16
2019-05-13T21:44:33.865Z,103585.50
2019-05-13T21:47:04.799Z,103589.94
2019-05-13T21:49:36.128Z,103586.09
2019-05-13T21:52:06.774Z,103587.91
2019-05-13T21:54:42.018Z,103586.19
2019-05-13T21:57:13.999Z,103587.97
2019-05-13T21:59:45.207Z,103581.38
2019-05-13T22:02:14.773Z,103581.86
2019-05-13T22:04:44.183Z,103583.22
2019-05-13T22:07:13.596Z,103578.78
2019-05-13T22:09:43.187Z,103581.53
2019-05-13T22:12:12.627Z,103583.95
2019-05-13T22:14:42.391Z,103585.81
2019-05-13T22:17:12.486Z,103587.14
2019-05-13T22:19:42.130Z,103583.09
2019-05-13T22:22:11.872Z,103585.42
2019-05-13T22:24:42.356Z,103581.89
2019-05-13T22:27:13.219Z,103581.84
2019-05-13T22:29:43.738Z,103580.64
2019-05-13T22:32:13.283Z,103578.01
2019-05-13T22:34:44.199Z,103578.87
2019-05-13T22:37:14.871Z,103580.20
2019-05-13T22:39:46.080Z,103577.04
2019-05-13T22:42:15.580Z,103580.14
2019-05-13T22:44:46.176Z,103579.84
2019-05-13T22:47:16.885Z,103584.90
2019-05-13T22:49:47.609Z,103579.55
2019-05-13T22:52:18.396Z,103583.13
2019-05-13T22:54:51.659Z,103583.13
2019-05-13T22:57:22.118Z,103582.23
2019-05-13T22:59:52.750Z,103581.50
2019-05-13T23:02:23.258Z,103578.83
2019-05-13T23:04:52.738Z,103574.06
2019-05-13T23:07:22.469Z,103579.44
2019-05-13T23:09:53.112Z,103577.35
2019-05-13T23:12:24.313Z,103579.58
2019-05-13T23:14:55.697Z,103577.77
2019-05-13T23:17:25.129Z,103580.88
2019-05-13T23:19:54.576Z,103580.06
2019-05-13T23:22:24.064Z,103580.92
2019-05-13T23:24:53.566Z,103577.78
2019-05-13T23:27:22.972Z,103578.17
2019-05-13T23:29:52.627Z,103568.87
2019-05-13T23:32:23.070Z,103576.55
2019-05-13T23:34:53.953Z,103570.47
2019-05-13T23:37:26.378Z,103569.67
2019-05-13T23:39:56.003Z,103575.98
2019-05-13T23:42:26.936Z,103574.54
2019-05-13T23:44:56.576Z,103580.81
2019-05-13T23:47:26.176Z,103579.06
2019-05-13T23:49:55.621Z,103571.95
2019-05-13T23:52:25.380Z,103572.83
2019-05-13T23:54:54.861Z,103578.23
2019-05-13T23:57:24.435Z,103573.02
2019-05-13T23:59:55.032Z,103573.55
